Eudowood, Maryland
Current Conditions -  °F | °C
As of 10:54 AM on Monday 26 Jan 2015 (Local Time) from KMTN Reporting Station
Light Snow Light Snow  
Wind Chill: 27°   Ceiling: 1100
Heat Index: 32°   Visibility: 2.5mi
Dew Point: 30°   Wind: 5mph
Humidity: 93%   Direction: 30°NNE
Pressure: 29.84"   Gusts: NA
Location:  39.4025°N, 76.6344°W
Report Text: KMTN 261554Z 03004KT 2 1/2SM -SN OVC011 00/M01 A2984
Loading
Personal Weather Stations






























Interactive Weather Map New forecast layout! Learn more

10-Day Weather Forecast

Advertisements
Track Severe Weather on mobile